Página principal
METAR-TAF:

METAR-TAF

Aeroportos :

Orange_County_Airport

Orange, Texas, Estados Unidos

latitude: 30-04-09N, longitude: 093-48-13W, altura: 4 m

Observação actual do tempo

O boletim foi feito há 27 minutos, às 01:35 UTC
Vento calmo
Temperatura 16°C
Humidade 100%
Pressão 1007 hPa
Visibilidade: 16.1 km
Céu limpo

METAR: KORG 140135Z AUTO 00000KT 10SM CLR 16/16 A2975 RMK AO2 LTG DSNT N T01610161

Hora: 20:02 (02:02 UTC)


TAF: em falta

Observações e previsões do tempo de mais de 4000 aeroportos (mensagens METAR e TAF).

As estações disponíveis são os pontos amarelos e vermelhos sobre o mapa.

Mova o rato sobre o mapa para ver o nome da estação.

Depois clique no ponto para visualizar as observações e previsões meteorológicas.

Para alterar o mapa : clique nos botões verdes com uma cruz preta para aumentar o zoom; no botão verde com uma pitada de zoom; ou nas setas verdes para mapas adjacentes.


METAR-TAF: